Terminal Aerodrome Forecast
Issued by NWS

Home | Current Version | Previous Version | Text Only | Print | Product List | Glossary Off
Versions: 1 2 3 4 5 6 7 8 9 10 11 12 13 14 15 16 17

387
FTUS41 KCLE 031139
TAFFDY
TAF
KFDY 031139Z 0312/0412 28006KT P6SM OVC035
      TEMPO 0316/0319 BKN028
     FM040100 VRB03KT P6SM BKN035
     FM040400 VRB03KT P6SM SCT035 OVC150=

USA.gov is the U.S. government's official web portal to all federal, state and local government web resources and services.